createdAt,value
2022-08-04T00:02:33.283Z,91.06
2022-08-04T00:05:05.858Z,90.74
2022-08-04T00:07:47.351Z,90.77
2022-08-04T00:10:17.732Z,90.68
2022-08-04T00:12:48.227Z,91.16
2022-08-04T00:15:16.935Z,91.71
2022-08-04T00:17:55.456Z,92.08
2022-08-04T00:20:24.482Z,91.55
2022-08-04T00:22:52.273Z,91.40
2022-08-04T00:25:19.536Z,91.28
2022-08-04T00:27:46.950Z,91.36
2022-08-04T00:30:13.518Z,91.27
2022-08-04T00:32:41.269Z,91.92
2022-08-04T00:35:10.516Z,91.84
2022-08-04T00:37:42.228Z,92.05
2022-08-04T00:40:19.568Z,92.58
2022-08-04T00:43:06.010Z,92.84
2022-08-04T00:46:15.495Z,92.87
2022-08-04T00:49:13.689Z,92.54
2022-08-04T00:52:32.364Z,92.29
2022-08-04T00:55:14.296Z,92.11
2022-08-04T00:58:07.558Z,92.65
2022-08-04T01:00:47.355Z,92.65
2022-08-04T01:03:22.942Z,92.84
2022-08-04T01:06:13.755Z,92.66
2022-08-04T01:09:05.395Z,92.47
2022-08-04T01:11:57.103Z,93.00
2022-08-04T01:14:54.066Z,92.92
2022-08-04T01:17:25.746Z,92.73
2022-08-04T01:20:02.116Z,92.75
2022-08-04T01:22:31.412Z,92.27
2022-08-04T01:25:16.260Z,92.54
2022-08-04T01:27:49.167Z,92.43
2022-08-04T01:30:16.380Z,92.25
2022-08-04T01:32:55.447Z,92.25
2022-08-04T01:35:46.717Z,92.00
2022-08-04T01:38:23.485Z,91.93
2022-08-04T01:40:56.707Z,91.78
2022-08-04T01:43:24.048Z,91.60
2022-08-04T01:45:57.526Z,91.91
2022-08-04T01:48:25.436Z,92.27
2022-08-04T01:50:58.667Z,92.09
2022-08-04T01:53:33.413Z,92.34
2022-08-04T01:56:01.905Z,92.49
2022-08-04T01:58:33.415Z,92.58
2022-08-04T02:01:08.242Z,92.70
2022-08-04T02:04:19.594Z,92.86
2022-08-04T02:06:56.062Z,92.91
2022-08-04T02:09:32.455Z,93.28
2022-08-04T02:12:18.528Z,93.37
2022-08-04T02:14:55.942Z,93.30
2022-08-04T02:17:35.957Z,93.39
2022-08-04T02:20:09.383Z,93.29
2022-08-04T02:22:44.910Z,93.25
2022-08-04T02:25:12.121Z,93.02
2022-08-04T02:27:59.871Z,93.04
2022-08-04T02:31:06.368Z,93.09
2022-08-04T02:33:42.417Z,93.15
2022-08-04T02:36:13.740Z,93.22
2022-08-04T02:39:05.469Z,93.36
2022-08-04T02:41:33.966Z,93.38
2022-08-04T02:44:09.228Z,93.68
2022-08-04T02:46:37.512Z,93.64
2022-08-04T02:49:09.628Z,93.66
2022-08-04T02:51:41.547Z,93.54
2022-08-04T02:54:08.787Z,93.71
2022-08-04T02:56:37.367Z,93.73
2022-08-04T02:59:09.735Z,93.95
2022-08-04T03:01:36.895Z,93.95
2022-08-04T03:04:29.088Z,94.18
2022-08-04T03:07:17.673Z,94.06
2022-08-04T03:10:18.736Z,94.34
2022-08-04T03:13:05.859Z,94.27
2022-08-04T03:16:01.141Z,94.43
2022-08-04T03:18:55.442Z,94.63
2022-08-04T03:21:40.470Z,94.71
2022-08-04T03:24:09.727Z,94.04
2022-08-04T03:26:48.216Z,94.43
2022-08-04T03:29:37.514Z,94.41
2022-08-04T03:32:20.846Z,94.62
2022-08-04T03:35:22.823Z,94.91
2022-08-04T03:38:17.099Z,95.12
2022-08-04T03:41:55.177Z,94.91
2022-08-04T03:44:35.228Z,94.98
2022-08-04T03:47:44.438Z,95.07
2022-08-04T03:50:29.694Z,95.12
2022-08-04T03:53:23.545Z,95.33
2022-08-04T03:56:26.551Z,95.55
2022-08-04T03:59:38.783Z,95.44
2022-08-04T04:02:25.277Z,95.64
2022-08-04T04:05:20.674Z,95.87
2022-08-04T04:08:29.329Z,95.83
2022-08-04T04:11:29.709Z,95.81
2022-08-04T04:14:07.671Z,96.09
2022-08-04T04:16:52.347Z,95.29
2022-08-04T04:19:34.551Z,95.59
2022-08-04T04:22:17.577Z,95.81
2022-08-04T04:25:10.940Z,94.89
2022-08-04T04:28:45.247Z,95.49
2022-08-04T04:31:15.467Z,95.45
2022-08-04T04:34:07.141Z,95.23
2022-08-04T04:37:01.929Z,95.28
2022-08-04T04:39:46.620Z,95.22
2022-08-04T04:42:31.421Z,94.96
2022-08-04T04:45:18.830Z,94.93
2022-08-04T04:48:14.820Z,94.83
2022-08-04T04:50:58.674Z,94.69
2022-08-04T04:53:50.270Z,94.19
2022-08-04T04:56:35.239Z,94.12
2022-08-04T04:59:03.692Z,94.07
2022-08-04T05:01:50.750Z,93.85
2022-08-04T05:04:37.205Z,93.81
2022-08-04T05:07:22.981Z,93.16
2022-08-04T05:10:23.559Z,93.11
2022-08-04T05:14:37.281Z,92.89
2022-08-04T05:16:18.952Z,92.24
2022-08-04T05:18:55.871Z,91.46
2022-08-04T05:21:37.443Z,91.17
2022-08-04T05:24:09.140Z,90.23
2022-08-04T05:26:41.760Z,90.14
2022-08-04T05:29:13.242Z,89.58
2022-08-04T05:31:49.648Z,89.41
2022-08-04T05:34:21.883Z,89.00
2022-08-04T05:36:55.713Z,88.53
2022-08-04T05:39:25.477Z,88.66
2022-08-04T05:41:55.526Z,87.80
2022-08-04T05:44:27.359Z,87.33
2022-08-04T05:46:57.247Z,87.65
2022-08-04T05:49:26.884Z,87.87
2022-08-04T05:51:55.916Z,87.81
2022-08-04T05:54:23.298Z,88.52
2022-08-04T05:56:50.986Z,86.85
2022-08-04T05:59:19.474Z,85.10
2022-08-04T06:01:55.859Z,84.35
2022-08-04T06:04:27.957Z,84.66
2022-08-04T06:06:55.216Z,83.39
2022-08-04T06:09:21.651Z,83.18
2022-08-04T06:12:01.982Z,84.20
2022-08-04T06:14:38.138Z,84.99
2022-08-04T06:18:33.855Z,84.80
2022-08-04T06:20:02.136Z,83.43
2022-08-04T06:22:44.382Z,82.78
2022-08-04T06:25:15.602Z,80.87
2022-08-04T06:27:42.976Z,81.78
2022-08-04T06:30:14.182Z,82.54
2022-08-04T06:33:04.124Z,83.63
2022-08-04T06:35:32.183Z,83.62
2022-08-04T06:38:01.250Z,84.78
2022-08-04T06:40:30.939Z,84.41
2022-08-04T06:43:00.641Z,83.98
2022-08-04T06:45:27.763Z,83.41
2022-08-04T06:47:54.745Z,84.75
2022-08-04T06:51:27.410Z,84.05
2022-08-04T06:53:09.319Z,83.85
2022-08-04T06:55:36.759Z,82.82
2022-08-04T06:58:03.820Z,82.65
2022-08-04T07:00:31.831Z,82.14
2022-08-04T07:02:58.814Z,80.58
2022-08-04T07:05:25.539Z,78.61
2022-08-04T07:07:58.133Z,77.40
2022-08-04T07:10:27.859Z,76.90
2022-08-04T07:12:56.600Z,77.33
2022-08-04T07:15:25.091Z,76.46
2022-08-04T07:17:53.041Z,76.86
2022-08-04T07:20:35.950Z,75.49
2022-08-04T07:23:05.386Z,75.43
2022-08-04T07:25:59.866Z,75.73
2022-08-04T07:28:21.063Z,76.18
2022-08-04T07:30:48.851Z,74.40
2022-08-04T07:33:19.017Z,77.34
2022-08-04T07:36:09.177Z,76.48
2022-08-04T07:38:34.039Z,76.25
2022-08-04T07:41:35.500Z,75.55
2022-08-04T07:43:54.663Z,77.19
2022-08-04T07:46:21.350Z,75.87
2022-08-04T07:48:48.359Z,75.93
2022-08-04T07:51:16.254Z,76.10
2022-08-04T07:53:55.136Z,75.57
2022-08-04T07:56:22.951Z,75.59
2022-08-04T07:58:49.842Z,70.54
2022-08-04T08:01:16.977Z,72.53
2022-08-04T08:03:43.661Z,71.86
2022-08-04T08:06:17.489Z,73.03
2022-08-04T08:08:57.810Z,70.17
2022-08-04T08:11:24.339Z,68.44
2022-08-04T08:14:11.720Z,66.05
2022-08-04T08:16:38.927Z,64.91
2022-08-04T08:19:06.246Z,65.93
2022-08-04T08:21:33.112Z,64.06
2022-08-04T08:24:00.133Z,62.20
2022-08-04T08:26:27.111Z,62.19
2022-08-04T08:28:55.192Z,59.08
2022-08-04T08:31:21.589Z,57.72
2022-08-04T08:34:08.385Z,58.87
2022-08-04T08:36:41.846Z,59.40
2022-08-04T08:39:37.419Z,60.18
2022-08-04T08:42:25.551Z,58.34
2022-08-04T08:45:40.411Z,58.28
2022-08-04T08:48:34.935Z,57.35
2022-08-04T08:51:28.520Z,60.76
2022-08-04T08:54:21.462Z,54.92
2022-08-04T08:57:11.992Z,59.86
2022-08-04T09:00:01.487Z,58.10
2022-08-04T09:03:04.781Z,57.72
2022-08-04T09:06:09.320Z,54.36
2022-08-04T09:08:47.923Z,57.12
2022-08-04T09:11:23.737Z,52.11
2022-08-04T09:13:56.465Z,53.72
2022-08-04T09:16:49.139Z,53.56
2022-08-04T09:19:37.816Z,51.37
2022-08-04T09:22:20.395Z,56.05
2022-08-04T09:25:05.043Z,53.10
2022-08-04T09:27:46.131Z,55.72
2022-08-04T09:30:15.411Z,52.13
2022-08-04T09:32:47.108Z,51.52
2022-08-04T09:35:24.055Z,51.44
2022-08-04T09:38:33.132Z,51.90
2022-08-04T09:41:33.935Z,49.45
2022-08-04T09:44:49.270Z,49.38
2022-08-04T09:47:39.738Z,47.01
2022-08-04T09:50:26.424Z,44.75
2022-08-04T09:53:18.007Z,48.23
2022-08-04T09:55:53.665Z,47.12
2022-08-04T09:58:58.450Z,50.44
2022-08-04T10:01:26.258Z,48.05
2022-08-04T10:03:56.312Z,46.68
2022-08-04T10:06:51.890Z,49.09
2022-08-04T10:09:52.224Z,52.74
2022-08-04T10:12:24.312Z,52.62
2022-08-04T10:15:19.535Z,56.45
2022-08-04T10:17:54.868Z,57.81
2022-08-04T10:20:45.999Z,56.94
2022-08-04T10:23:56.237Z,62.22
2022-08-04T10:26:33.522Z,64.14
2022-08-04T10:29:09.588Z,62.81
2022-08-04T10:31:43.910Z,64.95
2022-08-04T10:34:20.518Z,63.38
2022-08-04T10:36:56.594Z,62.84
2022-08-04T10:39:43.602Z,61.15
2022-08-04T10:42:20.648Z,62.83
2022-08-04T10:45:06.034Z,64.45
2022-08-04T10:47:38.179Z,63.04
2022-08-04T10:50:06.945Z,61.39
2022-08-04T10:52:42.380Z,63.03
2022-08-04T10:55:18.557Z,63.53
2022-08-04T10:57:56.327Z,64.70
2022-08-04T11:00:27.963Z,64.64
2022-08-04T11:03:07.186Z,64.19
2022-08-04T11:05:59.066Z,65.68
2022-08-04T11:08:34.470Z,63.78
2022-08-04T11:11:16.838Z,65.09
2022-08-04T11:13:53.923Z,66.66
2022-08-04T11:16:26.493Z,68.30
2022-08-04T11:19:16.563Z,70.91
2022-08-04T11:21:57.051Z,72.46
2022-08-04T11:24:42.372Z,71.45
2022-08-04T11:27:19.956Z,67.78
2022-08-04T11:30:01.341Z,67.89
2022-08-04T11:32:35.321Z,65.64
2022-08-04T11:35:05.415Z,65.22
2022-08-04T11:37:53.601Z,67.23
2022-08-04T11:40:24.238Z,63.55
2022-08-04T11:42:56.621Z,61.27
2022-08-04T11:45:33.968Z,55.55
2022-08-04T11:48:06.003Z,49.01
2022-08-04T11:50:41.477Z,51.38
2022-08-04T11:53:10.924Z,51.36
2022-08-04T11:56:07.982Z,46.77
2022-08-04T11:58:25.802Z,55.76
2022-08-04T12:01:21.481Z,51.89
2022-08-04T12:04:20.606Z,47.91
2022-08-04T12:07:21.639Z,47.76
2022-08-04T12:09:59.591Z,42.58
2022-08-04T12:12:39.303Z,42.88
2022-08-04T12:15:23.776Z,41.36
2022-08-04T12:17:56.104Z,38.75
2022-08-04T12:20:38.244Z,39.70
2022-08-04T12:23:17.497Z,39.64
2022-08-04T12:25:47.852Z,38.41
2022-08-04T12:28:24.869Z,39.69
2022-08-04T12:31:27.724Z,45.24
2022-08-04T12:34:06.195Z,40.13
2022-08-04T12:36:43.292Z,39.36
2022-08-04T12:39:19.432Z,40.51
2022-08-04T12:41:57.020Z,38.95
2022-08-04T12:44:38.045Z,35.28
2022-08-04T12:47:27.775Z,37.81
2022-08-04T12:50:02.003Z,39.21
2022-08-04T12:53:00.565Z,39.70
2022-08-04T12:55:22.807Z,41.40
2022-08-04T12:57:51.377Z,45.68
2022-08-04T13:00:32.183Z,47.61
2022-08-04T13:03:10.133Z,48.14
2022-08-04T13:05:39.145Z,49.98
2022-08-04T13:08:07.403Z,44.61
2022-08-04T13:10:40.015Z,48.05
2022-08-04T13:13:15.297Z,50.17
2022-08-04T13:15:47.333Z,48.22
2022-08-04T13:18:28.873Z,47.69
2022-08-04T13:21:20.244Z,50.13
2022-08-04T13:24:09.933Z,48.28
2022-08-04T13:26:42.489Z,49.26
2022-08-04T13:29:16.519Z,51.21
2022-08-04T13:31:52.615Z,53.89
2022-08-04T13:34:20.631Z,48.44
2022-08-04T13:36:49.469Z,53.54
2022-08-04T13:39:18.998Z,51.59
2022-08-04T13:41:57.957Z,51.64
2022-08-04T13:44:30.040Z,53.91
2022-08-04T13:47:00.222Z,53.57
2022-08-04T13:49:38.078Z,49.41
2022-08-04T13:52:13.259Z,51.82
2022-08-04T13:54:44.799Z,53.37
2022-08-04T13:57:15.700Z,49.98
2022-08-04T13:59:47.505Z,50.20
2022-08-04T14:02:42.251Z,52.15
2022-08-04T14:05:18.672Z,56.40
2022-08-04T14:07:50.707Z,54.48
2022-08-04T14:10:19.693Z,52.55
2022-08-04T14:12:47.808Z,54.48
2022-08-04T14:15:54.843Z,56.83
2022-08-04T14:18:29.795Z,56.17
2022-08-04T14:21:04.163Z,55.03
2022-08-04T14:23:47.018Z,56.57
2022-08-04T14:26:33.317Z,52.76
2022-08-04T14:29:26.657Z,56.74
2022-08-04T14:32:12.660Z,52.97
2022-08-04T14:34:45.804Z,53.71
2022-08-04T14:37:20.592Z,53.83
2022-08-04T14:40:08.478Z,55.62
2022-08-04T14:42:53.793Z,56.91
2022-08-04T14:45:55.457Z,55.71
2022-08-04T14:48:22.306Z,53.39
2022-08-04T14:50:50.193Z,54.21
2022-08-04T14:53:19.746Z,53.12
2022-08-04T14:55:48.550Z,54.14
2022-08-04T14:58:34.800Z,52.49
2022-08-04T15:01:09.857Z,54.33
2022-08-04T15:03:52.179Z,54.59
2022-08-04T15:06:25.959Z,53.75
2022-08-04T15:08:54.164Z,56.47
2022-08-04T15:11:23.531Z,55.32
2022-08-04T15:13:51.624Z,56.21
2022-08-04T15:16:18.728Z,55.72
2022-08-04T15:18:49.619Z,55.84
2022-08-04T15:21:17.309Z,60.60
2022-08-04T15:23:43.677Z,57.28
2022-08-04T15:26:15.534Z,57.12
2022-08-04T15:28:48.866Z,56.40
2022-08-04T15:32:04.555Z,53.62
2022-08-04T15:34:04.246Z,54.50
2022-08-04T15:36:56.811Z,55.28
2022-08-04T15:39:32.009Z,54.82
2022-08-04T15:42:16.198Z,56.43
2022-08-04T15:44:59.560Z,56.58
2022-08-04T15:47:27.226Z,56.85
2022-08-04T15:50:28.289Z,56.06
2022-08-04T15:53:10.787Z,55.37
2022-08-04T15:55:43.040Z,52.86
2022-08-04T15:58:12.925Z,54.79
2022-08-04T16:00:51.890Z,55.97
2022-08-04T16:03:54.225Z,56.63
2022-08-04T16:06:22.928Z,54.22
2022-08-04T16:08:57.338Z,54.11
2022-08-04T16:11:31.610Z,58.84
2022-08-04T16:13:58.474Z,53.79
2022-08-04T16:16:36.921Z,56.83
2022-08-04T16:19:14.455Z,57.30
2022-08-04T16:21:52.987Z,56.87
2022-08-04T16:24:29.592Z,56.29
2022-08-04T16:27:00.753Z,56.62
2022-08-04T16:29:28.983Z,55.51
2022-08-04T16:32:04.486Z,58.84
2022-08-04T16:34:49.187Z,57.47
2022-08-04T16:37:21.599Z,55.96
2022-08-04T16:39:50.517Z,58.36
2022-08-04T16:42:30.248Z,57.50
2022-08-04T16:45:08.847Z,57.62
2022-08-04T16:47:47.393Z,57.36
2022-08-04T16:50:22.086Z,57.08
2022-08-04T16:52:55.566Z,57.45
2022-08-04T16:55:24.864Z,59.43
2022-08-04T16:57:53.674Z,58.27
2022-08-04T17:00:35.475Z,56.86
2022-08-04T17:03:04.292Z,57.58
2022-08-04T17:05:39.322Z,59.73
2022-08-04T17:08:29.066Z,61.95
2022-08-04T17:10:53.826Z,59.56
2022-08-04T17:14:03.634Z,59.52
2022-08-04T17:16:21.225Z,59.06
2022-08-04T17:18:52.856Z,57.85
2022-08-04T17:21:28.569Z,59.22
2022-08-04T17:24:14.584Z,61.21
2022-08-04T17:26:51.713Z,57.93
2022-08-04T17:29:21.509Z,58.90
2022-08-04T17:31:53.321Z,57.14
2022-08-04T17:34:21.215Z,60.95
2022-08-04T17:36:48.645Z,60.20
2022-08-04T17:39:20.100Z,59.20
2022-08-04T17:41:48.602Z,59.74
2022-08-04T17:44:16.072Z,60.12
2022-08-04T17:46:45.546Z,60.14
2022-08-04T17:49:16.840Z,60.33
2022-08-04T17:52:05.435Z,59.76
2022-08-04T17:54:39.355Z,58.85
2022-08-04T18:00:19.615Z,62.48
2022-08-04T18:02:53.279Z,62.84
2022-08-04T18:05:54.078Z,63.60
2022-08-04T18:08:38.462Z,61.31
2022-08-04T18:11:02.803Z,62.07
2022-08-04T18:13:42.294Z,62.21
2022-08-04T18:16:22.989Z,61.91
2022-08-04T18:19:12.834Z,63.23
2022-08-04T18:21:46.593Z,61.77
2022-08-04T18:24:34.288Z,62.22
2022-08-04T18:27:03.551Z,60.89
2022-08-04T18:29:34.068Z,63.74
2022-08-04T18:32:05.528Z,63.22
2022-08-04T18:34:36.091Z,64.13
2022-08-04T18:38:03.047Z,62.93
2022-08-04T18:40:10.690Z,62.19
2022-08-04T18:42:40.452Z,63.37
2022-08-04T18:45:09.841Z,64.00
2022-08-04T18:47:59.432Z,63.22
2022-08-04T18:50:59.987Z,62.89
2022-08-04T18:53:09.157Z,62.98
2022-08-04T18:55:55.305Z,65.06
2022-08-04T18:58:27.474Z,64.25
2022-08-04T19:00:55.646Z,64.84
2022-08-04T19:03:23.087Z,66.69
2022-08-04T19:05:50.385Z,66.27
2022-08-04T19:08:34.246Z,66.60
2022-08-04T19:11:37.056Z,66.85
2022-08-04T19:13:54.672Z,67.59
2022-08-04T19:16:25.484Z,66.93
2022-08-04T19:18:52.153Z,67.95
2022-08-04T19:21:19.364Z,67.47
2022-08-04T19:24:29.275Z,67.01
2022-08-04T19:27:02.164Z,67.30
2022-08-04T19:29:37.650Z,67.50
2022-08-04T19:32:04.936Z,69.02
2022-08-04T19:34:42.630Z,67.89
2022-08-04T19:37:56.632Z,68.44
2022-08-04T19:40:06.521Z,69.63
2022-08-04T19:42:33.076Z,69.28
2022-08-04T19:45:02.254Z,69.87
2022-08-04T19:48:21.130Z,69.26
2022-08-04T19:50:15.304Z,69.11
2022-08-04T19:52:49.245Z,70.49
2022-08-04T19:55:22.219Z,69.62
2022-08-04T19:57:49.701Z,70.03
2022-08-04T20:00:17.827Z,71.25
2022-08-04T20:03:03.176Z,71.50
2022-08-04T20:05:52.549Z,72.09
2022-08-04T20:08:16.728Z,72.56
2022-08-04T20:10:51.440Z,72.86
2022-08-04T20:13:19.862Z,72.94
2022-08-04T20:15:57.330Z,73.20
2022-08-04T20:18:36.434Z,73.33
2022-08-04T20:21:19.800Z,73.87
2022-08-04T20:23:51.105Z,73.77
2022-08-04T20:26:17.483Z,73.97
2022-08-04T20:28:45.688Z,74.72
2022-08-04T20:31:18.384Z,74.96
2022-08-04T20:33:49.356Z,76.30
2022-08-04T20:36:20.519Z,76.10
2022-08-04T20:38:51.996Z,77.45
2022-08-04T20:41:19.518Z,77.17
2022-08-04T20:43:46.603Z,77.43
2022-08-04T20:46:18.653Z,77.62
2022-08-04T20:48:56.168Z,77.54
2022-08-04T20:51:24.767Z,77.86
2022-08-04T20:54:00.932Z,77.46
2022-08-04T20:56:31.290Z,79.16
2022-08-04T20:58:59.592Z,79.42
2022-08-04T21:01:29.902Z,79.57
2022-08-04T21:04:27.256Z,79.20
2022-08-04T21:06:55.055Z,79.86
2022-08-04T21:09:37.462Z,78.81
2022-08-04T21:12:09.386Z,79.16
2022-08-04T21:14:36.056Z,78.82
2022-08-04T21:17:02.968Z,78.34
2022-08-04T21:19:31.646Z,78.41
2022-08-04T21:21:58.360Z,78.17
2022-08-04T21:24:26.496Z,77.58
2022-08-04T21:26:56.834Z,78.28
2022-08-04T21:29:24.076Z,78.06
2022-08-04T21:32:07.547Z,78.64
2022-08-04T21:34:39.457Z,78.30
2022-08-04T21:37:07.130Z,78.29
2022-08-04T21:39:54.839Z,78.66
2022-08-04T21:42:29.539Z,78.58
2022-08-04T21:44:57.601Z,78.69
2022-08-04T21:47:24.115Z,77.85
2022-08-04T21:49:55.944Z,77.99
2022-08-04T21:52:22.577Z,78.58
2022-08-04T21:54:48.973Z,79.31
2022-08-04T21:57:24.653Z,78.33
2022-08-04T21:59:51.867Z,79.39
2022-08-04T22:02:18.360Z,78.81
2022-08-04T22:04:44.851Z,79.82
2022-08-04T22:07:11.367Z,79.17
2022-08-04T22:09:41.354Z,79.14
2022-08-04T22:12:10.429Z,78.89
2022-08-04T22:14:39.340Z,79.33
2022-08-04T22:17:05.777Z,79.32
2022-08-04T22:19:50.298Z,79.07
2022-08-04T22:22:25.741Z,78.91
2022-08-04T22:24:54.193Z,79.00
2022-08-04T22:27:39.009Z,79.14
2022-08-04T22:30:10.525Z,79.78
2022-08-04T22:32:43.474Z,79.38
2022-08-04T22:35:36.368Z,79.12
2022-08-04T22:38:07.761Z,79.70
2022-08-04T22:40:43.670Z,79.36
2022-08-04T22:43:33.822Z,79.40
2022-08-04T22:46:01.867Z,79.96
2022-08-04T22:48:32.143Z,79.67
2022-08-04T22:50:59.520Z,79.83
2022-08-04T22:53:25.973Z,80.86
2022-08-04T22:56:07.433Z,79.65
2022-08-04T22:58:51.075Z,79.76
2022-08-04T23:01:18.068Z,79.63
2022-08-04T23:03:50.876Z,80.41
2022-08-04T23:06:24.612Z,80.37
2022-08-04T23:08:51.579Z,79.97
2022-08-04T23:11:17.969Z,81.25
2022-08-04T23:13:44.718Z,80.53
2022-08-04T23:16:12.199Z,80.12
2022-08-04T23:18:40.134Z,80.42
2022-08-04T23:21:10.141Z,79.38
2022-08-04T23:23:37.060Z,79.13
2022-08-04T23:26:15.781Z,80.89
2022-08-04T23:28:43.102Z,80.49
2022-08-04T23:31:10.290Z,80.84
2022-08-04T23:33:51.126Z,80.80
2022-08-04T23:36:19.040Z,80.32
2022-08-04T23:38:59.771Z,80.74
2022-08-04T23:41:54.589Z,81.03
2022-08-04T23:44:13.106Z,80.86
2022-08-04T23:46:44.125Z,79.98
2022-08-04T23:49:11.568Z,81.21
2022-08-04T23:51:43.281Z,80.47
2022-08-04T23:54:09.693Z,80.19
2022-08-04T23:56:37.855Z,80.64
2022-08-04T23:59:04.862Z,80.16
